sensor_id;sensor_type;location;lat;lon;timestamp;pressure;altitude;pressure_sealevel;temperature;humidity
8160;BME280;27404;52.398;9.646;2022-09-11T00:01:26;100764.53;;;12.78;100.00
8160;BME280;27404;52.398;9.646;2022-09-11T00:03:52;100764.38;;;12.85;100.00
8160;BME280;27404;52.398;9.646;2022-09-11T00:06:19;100765.69;;;12.82;100.00
8160;BME280;27404;52.398;9.646;2022-09-11T00:08:46;100768.34;;;12.77;100.00
8160;BME280;27404;52.398;9.646;2022-09-11T00:11:18;100772.66;;;12.73;100.00
8160;BME280;27404;52.398;9.646;2022-09-11T00:13:47;100771.25;;;12.70;100.00
8160;BME280;27404;52.398;9.646;2022-09-11T00:16:40;100775.81;;;12.65;100.00
8160;BME280;27404;52.398;9.646;2022-09-11T00:19:11;100770.00;;;12.61;100.00
8160;BME280;27404;52.398;9.646;2022-09-11T00:21:37;100770.81;;;12.62;100.00
8160;BME280;27404;52.398;9.646;2022-09-11T00:24:04;100775.66;;;12.54;100.00
8160;BME280;27404;52.398;9.646;2022-09-11T00:26:30;100779.69;;;12.52;100.00
8160;BME280;27404;52.398;9.646;2022-09-11T00:28:55;100781.03;;;12.49;100.00
8160;BME280;27404;52.398;9.646;2022-09-11T00:31:26;100778.41;;;12.42;100.00
8160;BME280;27404;52.398;9.646;2022-09-11T00:33:53;100774.16;;;12.35;100.00
8160;BME280;27404;52.398;9.646;2022-09-11T00:36:24;100779.66;;;12.35;100.00
8160;BME280;27404;52.398;9.646;2022-09-11T00:38:51;100777.13;;;12.33;100.00
8160;BME280;27404;52.398;9.646;2022-09-11T00:41:19;100775.63;;;12.25;100.00
8160;BME280;27404;52.398;9.646;2022-09-11T00:43:57;100786.25;;;12.22;100.00
8160;BME280;27404;52.398;9.646;2022-09-11T00:46:38;100789.72;;;12.17;100.00
8160;BME280;27404;52.398;9.646;2022-09-11T00:49:16;100798.78;;;12.18;100.00
8160;BME280;27404;52.398;9.646;2022-09-11T00:51:46;100789.81;;;12.22;100.00
8160;BME280;27404;52.398;9.646;2022-09-11T00:54:17;100796.72;;;12.25;100.00
8160;BME280;27404;52.398;9.646;2022-09-11T00:56:45;100794.06;;;12.30;100.00
8160;BME280;27404;52.398;9.646;2022-09-11T00:59:12;100802.88;;;12.32;100.00
8160;BME280;27404;52.398;9.646;2022-09-11T01:01:38;100791.53;;;12.40;100.00
8160;BME280;27404;52.398;9.646;2022-09-11T01:04:06;100794.47;;;12.51;100.00
8160;BME280;27404;52.398;9.646;2022-09-11T01:06:33;100796.00;;;12.58;100.00
8160;BME280;27404;52.398;9.646;2022-09-11T01:08:59;100798.59;;;12.65;100.00
8160;BME280;27404;52.398;9.646;2022-09-11T01:11:46;100799.28;;;12.72;100.00
8160;BME280;27404;52.398;9.646;2022-09-11T01:14:39;100797.53;;;12.83;100.00
8160;BME280;27404;52.398;9.646;2022-09-11T01:20:31;100808.44;;;12.95;100.00
8160;BME280;27404;52.398;9.646;2022-09-11T01:31:33;100813.72;;;13.14;100.00
8160;BME280;27404;52.398;9.646;2022-09-11T01:34:10;100818.47;;;13.18;100.00
8160;BME280;27404;52.398;9.646;2022-09-11T01:36:45;100811.41;;;13.23;100.00
8160;BME280;27404;52.398;9.646;2022-09-11T01:39:15;100817.78;;;13.28;100.00
8160;BME280;27404;52.398;9.646;2022-09-11T01:41:48;100816.94;;;13.28;100.00
8160;BME280;27404;52.398;9.646;2022-09-11T01:44:20;100811.72;;;13.26;100.00
8160;BME280;27404;52.398;9.646;2022-09-11T01:46:50;100820.28;;;13.30;100.00
8160;BME280;27404;52.398;9.646;2022-09-11T01:49:26;100819.78;;;13.33;100.00
8160;BME280;27404;52.398;9.646;2022-09-11T01:51:55;100824.44;;;13.32;100.00
8160;BME280;27404;52.398;9.646;2022-09-11T01:54:26;100820.63;;;13.33;100.00
8160;BME280;27404;52.398;9.646;2022-09-11T01:56:58;100822.28;;;13.35;100.00
8160;BME280;27404;52.398;9.646;2022-09-11T01:59:36;100822.53;;;13.33;100.00
8160;BME280;27404;52.398;9.646;2022-09-11T02:02:08;100823.53;;;13.27;100.00
8160;BME280;27404;52.398;9.646;2022-09-11T02:04:46;100832.91;;;13.31;100.00
8160;BME280;27404;52.398;9.646;2022-09-11T02:07:23;100826.69;;;13.36;100.00
8160;BME280;27404;52.398;9.646;2022-09-11T02:09:56;100823.00;;;13.42;100.00
8160;BME280;27404;52.398;9.646;2022-09-11T02:12:27;100826.78;;;13.41;100.00
8160;BME280;27404;52.398;9.646;2022-09-11T02:14:55;100820.44;;;13.40;100.00
8160;BME280;27404;52.398;9.646;2022-09-11T02:19:58;100826.19;;;13.39;100.00
8160;BME280;27404;52.398;9.646;2022-09-11T02:22:25;100825.94;;;13.40;100.00
8160;BME280;27404;52.398;9.646;2022-09-11T02:24:52;100830.38;;;13.41;100.00
8160;BME280;27404;52.398;9.646;2022-09-11T02:27:21;100839.56;;;13.47;100.00
8160;BME280;27404;52.398;9.646;2022-09-11T02:29:48;100839.47;;;13.42;100.00
8160;BME280;27404;52.398;9.646;2022-09-11T02:32:15;100842.53;;;13.45;100.00
8160;BME280;27404;52.398;9.646;2022-09-11T02:34:43;100844.69;;;13.43;100.00
8160;BME280;27404;52.398;9.646;2022-09-11T02:37:21;100854.59;;;13.44;100.00
8160;BME280;27404;52.398;9.646;2022-09-11T02:47:40;100864.50;;;13.45;100.00
8160;BME280;27404;52.398;9.646;2022-09-11T02:57:39;100874.41;;;13.46;100.00
8160;BME280;27404;52.398;9.646;2022-09-11T03:00:08;100876.34;;;13.46;100.00
8160;BME280;27404;52.398;9.646;2022-09-11T03:02:35;100880.16;;;13.45;100.00
8160;BME280;27404;52.398;9.646;2022-09-11T03:05:04;100879.09;;;13.46;100.00
8160;BME280;27404;52.398;9.646;2022-09-11T03:07:30;100878.50;;;13.44;100.00
8160;BME280;27404;52.398;9.646;2022-09-11T03:09:57;100888.41;;;13.45;100.00
8160;BME280;27404;52.398;9.646;2022-09-11T03:12:22;100883.59;;;13.40;100.00
8160;BME280;27404;52.398;9.646;2022-09-11T03:14:48;100882.56;;;13.41;100.00
8160;BME280;27404;52.398;9.646;2022-09-11T03:17:13;100885.66;;;13.45;100.00
8160;BME280;27404;52.398;9.646;2022-09-11T03:19:39;100891.72;;;13.47;100.00
8160;BME280;27404;52.398;9.646;2022-09-11T03:22:04;100879.16;;;13.51;100.00
8160;BME280;27404;52.398;9.646;2022-09-11T03:24:30;100881.56;;;13.47;100.00
8160;BME280;27404;52.398;9.646;2022-09-11T03:26:55;100889.94;;;13.41;100.00
8160;BME280;27404;52.398;9.646;2022-09-11T03:29:20;100895.44;;;13.41;100.00
8160;BME280;27404;52.398;9.646;2022-09-11T03:31:46;100888.78;;;13.37;100.00
8160;BME280;27404;52.398;9.646;2022-09-11T03:34:12;100891.53;;;13.37;100.00
8160;BME280;27404;52.398;9.646;2022-09-11T03:36:38;100900.25;;;13.33;100.00
8160;BME280;27404;52.398;9.646;2022-09-11T03:39:04;100892.84;;;13.34;100.00
8160;BME280;27404;52.398;9.646;2022-09-11T03:41:30;100896.25;;;13.24;100.00
8160;BME280;27404;52.398;9.646;2022-09-11T03:43:56;100902.88;;;13.11;100.00
8160;BME280;27404;52.398;9.646;2022-09-11T03:46:21;100913.91;;;12.99;100.00
8160;BME280;27404;52.398;9.646;2022-09-11T03:48:48;100904.56;;;13.00;100.00
8160;BME280;27404;52.398;9.646;2022-09-11T03:51:14;100910.28;;;13.11;100.00
8160;BME280;27404;52.398;9.646;2022-09-11T03:53:40;100899.28;;;13.11;100.00
8160;BME280;27404;52.398;9.646;2022-09-11T03:56:06;100900.84;;;13.07;100.00
8160;BME280;27404;52.398;9.646;2022-09-11T03:58:32;100904.28;;;13.14;100.00
8160;BME280;27404;52.398;9.646;2022-09-11T04:00:58;100910.47;;;13.21;100.00
8160;BME280;27404;52.398;9.646;2022-09-11T04:03:24;100906.91;;;13.21;100.00
8160;BME280;27404;52.398;9.646;2022-09-11T04:06:00;100905.56;;;13.23;100.00
8160;BME280;27404;52.398;9.646;2022-09-11T04:08:26;100901.91;;;13.17;100.00
8160;BME280;27404;52.398;9.646;2022-09-11T04:10:56;100903.66;;;13.24;100.00
8160;BME280;27404;52.398;9.646;2022-09-11T04:13:34;100899.56;;;13.26;100.00
8160;BME280;27404;52.398;9.646;2022-09-11T04:16:03;100902.91;;;13.28;100.00
8160;BME280;27404;52.398;9.646;2022-09-11T04:18:30;100907.81;;;13.26;100.00
8160;BME280;27404;52.398;9.646;2022-09-11T04:20:57;100914.63;;;13.24;100.00
8160;BME280;27404;52.398;9.646;2022-09-11T04:23:23;100914.28;;;13.20;100.00
8160;BME280;27404;52.398;9.646;2022-09-11T04:25:48;100914.06;;;13.22;100.00
8160;BME280;27404;52.398;9.646;2022-09-11T04:28:14;100916.88;;;13.27;100.00
8160;BME280;27404;52.398;9.646;2022-09-11T04:30:39;100913.03;;;13.28;100.00
8160;BME280;27404;52.398;9.646;2022-09-11T04:33:06;100924.34;;;13.14;100.00
8160;BME280;27404;52.398;9.646;2022-09-11T04:35:32;100920.66;;;13.09;100.00
8160;BME280;27404;52.398;9.646;2022-09-11T04:38:00;100920.22;;;13.00;100.00
8160;BME280;27404;52.398;9.646;2022-09-11T04:40:26;100915.66;;;13.06;100.00
8160;BME280;27404;52.398;9.646;2022-09-11T04:42:51;100916.50;;;13.06;100.00
8160;BME280;27404;52.398;9.646;2022-09-11T04:45:17;100920.66;;;13.09;100.00
8160;BME280;27404;52.398;9.646;2022-09-11T04:47:43;100927.00;;;13.09;100.00
8160;BME280;27404;52.398;9.646;2022-09-11T04:50:08;100931.50;;;13.15;100.00
8160;BME280;27404;52.398;9.646;2022-09-11T04:52:34;100928.59;;;13.22;100.00
8160;BME280;27404;52.398;9.646;2022-09-11T04:54:59;100932.09;;;13.17;100.00
8160;BME280;27404;52.398;9.646;2022-09-11T04:57:28;100936.03;;;13.10;100.00
8160;BME280;27404;52.398;9.646;2022-09-11T04:59:54;100938.84;;;12.98;100.00
8160;BME280;27404;52.398;9.646;2022-09-11T05:02:20;100935.84;;;12.99;100.00
8160;BME280;27404;52.398;9.646;2022-09-11T05:04:46;100939.63;;;13.10;100.00
8160;BME280;27404;52.398;9.646;2022-09-11T05:07:11;100951.94;;;13.08;100.00
8160;BME280;27404;52.398;9.646;2022-09-11T05:09:38;100950.53;;;13.05;100.00
8160;BME280;27404;52.398;9.646;2022-09-11T05:12:04;100946.78;;;13.11;100.00
8160;BME280;27404;52.398;9.646;2022-09-11T05:14:29;100950.63;;;13.10;100.00
8160;BME280;27404;52.398;9.646;2022-09-11T05:16:57;100958.50;;;13.07;100.00
8160;BME280;27404;52.398;9.646;2022-09-11T05:19:23;100959.94;;;13.09;100.00
8160;BME280;27404;52.398;9.646;2022-09-11T05:21:50;100968.41;;;13.08;100.00
8160;BME280;27404;52.398;9.646;2022-09-11T05:24:15;100967.91;;;13.11;100.00
8160;BME280;27404;52.398;9.646;2022-09-11T05:26:41;100964.34;;;13.10;100.00
8160;BME280;27404;52.398;9.646;2022-09-11T05:29:11;100978.56;;;13.07;100.00
8160;BME280;27404;52.398;9.646;2022-09-11T05:31:37;100972.81;;;13.09;100.00
8160;BME280;27404;52.398;9.646;2022-09-11T05:34:03;100973.28;;;13.06;100.00
8160;BME280;27404;52.398;9.646;2022-09-11T05:36:29;100971.63;;;13.04;100.00
8160;BME280;27404;52.398;9.646;2022-09-11T05:38:59;100977.22;;;13.10;100.00
8160;BME280;27404;52.398;9.646;2022-09-11T05:41:25;100981.41;;;13.12;100.00
8160;BME280;27404;52.398;9.646;2022-09-11T05:43:51;100985.44;;;13.10;100.00
8160;BME280;27404;52.398;9.646;2022-09-11T05:46:18;100980.94;;;13.03;100.00
8160;BME280;27404;52.398;9.646;2022-09-11T05:48:44;100984.84;;;13.20;100.00
8160;BME280;27404;52.398;9.646;2022-09-11T05:51:17;100988.06;;;13.16;100.00
8160;BME280;27404;52.398;9.646;2022-09-11T05:53:44;100991.16;;;13.20;100.00
8160;BME280;27404;52.398;9.646;2022-09-11T05:58:39;101009.06;;;13.23;100.00
8160;BME280;27404;52.398;9.646;2022-09-11T06:01:10;101011.88;;;13.28;100.00
8160;BME280;27404;52.398;9.646;2022-09-11T06:03:37;101018.13;;;13.23;100.00
8160;BME280;27404;52.398;9.646;2022-09-11T06:06:05;101022.38;;;13.31;100.00
8160;BME280;27404;52.398;9.646;2022-09-11T06:08:32;101021.66;;;13.36;100.00
8160;BME280;27404;52.398;9.646;2022-09-11T06:10:59;101021.66;;;13.36;100.00
8160;BME280;27404;52.398;9.646;2022-09-11T06:13:29;101033.13;;;13.32;100.00
8160;BME280;27404;52.398;9.646;2022-09-11T06:15:56;101033.94;;;13.33;100.00
8160;BME280;27404;52.398;9.646;2022-09-11T06:18:21;101036.47;;;13.35;100.00
8160;BME280;27404;52.398;9.646;2022-09-11T06:20:57;101036.09;;;13.43;100.00
8160;BME280;27404;52.398;9.646;2022-09-11T06:23:23;101034.53;;;13.47;100.00
8160;BME280;27404;52.398;9.646;2022-09-11T06:25:49;101038.09;;;13.47;100.00
8160;BME280;27404;52.398;9.646;2022-09-11T06:28:15;101034.88;;;13.51;100.00
8160;BME280;27404;52.398;9.646;2022-09-11T06:30:40;101046.28;;;13.59;100.00
8160;BME280;27404;52.398;9.646;2022-09-11T06:33:06;101044.97;;;13.62;100.00
8160;BME280;27404;52.398;9.646;2022-09-11T06:35:31;101041.56;;;13.72;100.00
8160;BME280;27404;52.398;9.646;2022-09-11T06:37:57;101049.41;;;13.80;100.00
8160;BME280;27404;52.398;9.646;2022-09-11T06:40:23;101054.91;;;13.80;100.00
8160;BME280;27404;52.398;9.646;2022-09-11T06:42:49;101062.16;;;13.86;100.00
8160;BME280;27404;52.398;9.646;2022-09-11T06:45:16;101067.25;;;13.95;100.00
8160;BME280;27404;52.398;9.646;2022-09-11T06:47:42;101065.69;;;13.99;100.00
8160;BME280;27404;52.398;9.646;2022-09-11T06:50:09;101069.03;;;14.01;100.00
8160;BME280;27404;52.398;9.646;2022-09-11T06:52:36;101064.78;;;14.10;100.00
8160;BME280;27404;52.398;9.646;2022-09-11T06:55:02;101064.78;;;14.10;100.00
8160;BME280;27404;52.398;9.646;2022-09-11T06:57:27;101070.59;;;14.14;100.00
8160;BME280;27404;52.398;9.646;2022-09-11T06:59:53;101071.88;;;14.23;100.00
8160;BME280;27404;52.398;9.646;2022-09-11T07:02:18;101066.19;;;14.30;100.00
8160;BME280;27404;52.398;9.646;2022-09-11T07:04:44;101072.84;;;14.34;100.00
8160;BME280;27404;52.398;9.646;2022-09-11T07:07:10;101065.53;;;14.40;100.00
8160;BME280;27404;52.398;9.646;2022-09-11T07:09:36;101067.03;;;14.47;100.00
8160;BME280;27404;52.398;9.646;2022-09-11T07:12:01;101070.75;;;14.58;100.00
8160;BME280;27404;52.398;9.646;2022-09-11T07:14:27;101074.84;;;14.56;100.00
8160;BME280;27404;52.398;9.646;2022-09-11T07:16:52;101082.78;;;14.69;100.00
8160;BME280;27404;52.398;9.646;2022-09-11T07:19:22;101090.28;;;14.74;100.00
8160;BME280;27404;52.398;9.646;2022-09-11T07:21:49;101088.44;;;14.79;100.00
8160;BME280;27404;52.398;9.646;2022-09-11T07:24:15;101085.19;;;14.83;100.00
8160;BME280;27404;52.398;9.646;2022-09-11T07:26:40;101083.66;;;14.92;100.00
8160;BME280;27404;52.398;9.646;2022-09-11T07:29:05;101085.00;;;14.89;100.00
8160;BME280;27404;52.398;9.646;2022-09-11T07:31:32;101078.13;;;14.92;100.00
8160;BME280;27404;52.398;9.646;2022-09-11T07:33:58;101085.38;;;14.98;100.00
8160;BME280;27404;52.398;9.646;2022-09-11T07:36:29;101082.69;;;15.03;100.00
8160;BME280;27404;52.398;9.646;2022-09-11T07:38:56;101085.34;;;15.15;100.00
8160;BME280;27404;52.398;9.646;2022-09-11T07:41:23;101081.38;;;15.28;100.00
8160;BME280;27404;52.398;9.646;2022-09-11T07:43:54;101078.75;;;15.38;100.00
8160;BME280;27404;52.398;9.646;2022-09-11T07:46:21;101088.75;;;15.45;100.00
8160;BME280;27404;52.398;9.646;2022-09-11T07:48:47;101086.94;;;15.55;100.00
8160;BME280;27404;52.398;9.646;2022-09-11T07:51:14;101089.47;;;15.62;100.00
8160;BME280;27404;52.398;9.646;2022-09-11T07:53:42;101098.34;;;15.87;100.00
8160;BME280;27404;52.398;9.646;2022-09-11T07:56:12;101094.72;;;16.13;100.00
8160;BME280;27404;52.398;9.646;2022-09-11T07:58:39;101102.81;;;16.25;100.00
8160;BME280;27404;52.398;9.646;2022-09-11T08:01:16;101098.13;;;16.26;100.00
8160;BME280;27404;52.398;9.646;2022-09-11T08:03:43;101095.56;;;16.14;100.00
8160;BME280;27404;52.398;9.646;2022-09-11T08:06:12;101106.84;;;16.12;100.00
8160;BME280;27404;52.398;9.646;2022-09-11T08:08:38;101106.94;;;16.23;100.00
8160;BME280;27404;52.398;9.646;2022-09-11T08:11:09;101108.69;;;16.34;100.00
8160;BME280;27404;52.398;9.646;2022-09-11T08:13:35;101118.19;;;16.49;100.00
8160;BME280;27404;52.398;9.646;2022-09-11T08:16:02;101114.09;;;16.56;100.00
8160;BME280;27404;52.398;9.646;2022-09-11T08:18:28;101121.94;;;16.70;100.00
8160;BME280;27404;52.398;9.646;2022-09-11T08:21:03;101124.19;;;16.78;100.00
8160;BME280;27404;52.398;9.646;2022-09-11T08:23:29;101123.19;;;16.95;100.00
8160;BME280;27404;52.398;9.646;2022-09-11T08:26:02;101129.16;;;17.14;100.00
8160;BME280;27404;52.398;9.646;2022-09-11T08:28:29;101119.28;;;17.34;100.00
8160;BME280;27404;52.398;9.646;2022-09-11T08:30:57;101129.31;;;17.55;100.00
8160;BME280;27404;52.398;9.646;2022-09-11T08:33:23;101128.28;;;17.77;100.00
8160;BME280;27404;52.398;9.646;2022-09-11T08:35:49;101132.81;;;18.14;100.00
8160;BME280;27404;52.398;9.646;2022-09-11T08:38:14;101133.41;;;18.42;100.00
8160;BME280;27404;52.398;9.646;2022-09-11T08:40:39;101134.78;;;18.55;100.00
8160;BME280;27404;52.398;9.646;2022-09-11T08:43:12;101147.22;;;18.37;100.00
8160;BME280;27404;52.398;9.646;2022-09-11T08:45:41;101151.38;;;18.50;100.00
8160;BME280;27404;52.398;9.646;2022-09-11T08:48:06;101150.25;;;18.35;100.00
8160;BME280;27404;52.398;9.646;2022-09-11T08:50:43;101150.25;;;18.30;100.00
8160;BME280;27404;52.398;9.646;2022-09-11T08:53:13;101154.59;;;17.95;100.00
8160;BME280;27404;52.398;9.646;2022-09-11T08:55:49;101147.09;;;17.90;100.00
8160;BME280;27404;52.398;9.646;2022-09-11T08:58:25;101153.34;;;17.50;100.00
8160;BME280;27404;52.398;9.646;2022-09-11T09:15:19;101161.50;;;17.87;100.00
8160;BME280;27404;52.398;9.646;2022-09-11T09:18:02;101160.94;;;17.90;100.00
8160;BME280;27404;52.398;9.646;2022-09-11T09:21:36;101169.31;;;18.11;100.00
8160;BME280;27404;52.398;9.646;2022-09-11T09:23:56;101165.47;;;18.23;100.00
8160;BME280;27404;52.398;9.646;2022-09-11T09:26:30;101179.56;;;18.26;100.00
8160;BME280;27404;52.398;9.646;2022-09-11T09:29:02;101175.44;;;18.24;100.00
8160;BME280;27404;52.398;9.646;2022-09-11T09:31:29;101175.69;;;18.07;100.00
8160;BME280;27404;52.398;9.646;2022-09-11T09:34:03;101171.81;;;18.08;100.00
8160;BME280;27404;52.398;9.646;2022-09-11T09:36:35;101170.69;;;18.03;100.00
8160;BME280;27404;52.398;9.646;2022-09-11T09:39:15;101171.25;;;18.05;100.00
8160;BME280;27404;52.398;9.646;2022-09-11T09:42:15;101175.69;;;18.22;100.00
8160;BME280;27404;52.398;9.646;2022-09-11T09:44:50;101176.56;;;18.38;100.00
8160;BME280;27404;52.398;9.646;2022-09-11T09:47:20;101176.59;;;18.54;100.00
8160;BME280;27404;52.398;9.646;2022-09-11T09:49:45;101173.50;;;18.91;100.00
8160;BME280;27404;52.398;9.646;2022-09-11T09:55:00;101192.06;;;19.17;100.00
8160;BME280;27404;52.398;9.646;2022-09-11T09:57:36;101187.38;;;19.07;100.00
8160;BME280;27404;52.398;9.646;2022-09-11T10:02:52;101191.47;;;19.30;100.00
8160;BME280;27404;52.398;9.646;2022-09-11T10:07:53;101189.00;;;19.23;100.00
8160;BME280;27404;52.398;9.646;2022-09-11T10:10:28;101186.53;;;18.80;100.00
8160;BME280;27404;52.398;9.646;2022-09-11T10:12:57;101190.97;;;18.50;100.00
8160;BME280;27404;52.398;9.646;2022-09-11T10:15:24;101176.25;;;18.29;100.00
8160;BME280;27404;52.398;9.646;2022-09-11T10:17:50;101184.88;;;18.33;100.00
8160;BME280;27404;52.398;9.646;2022-09-11T10:22:54;101188.75;;;18.58;100.00
8160;BME280;27404;52.398;9.646;2022-09-11T10:25:24;101183.50;;;18.61;100.00
8160;BME280;27404;52.398;9.646;2022-09-11T10:28:12;101189.59;;;18.69;100.00
8160;BME280;27404;52.398;9.646;2022-09-11T10:31:00;101185.13;;;18.93;100.00
8160;BME280;27404;52.398;9.646;2022-09-11T10:33:30;101187.91;;;19.04;100.00
8160;BME280;27404;52.398;9.646;2022-09-11T10:36:00;101189.88;;;18.98;100.00
8160;BME280;27404;52.398;9.646;2022-09-11T10:38:34;101197.63;;;18.96;100.00
8160;BME280;27404;52.398;9.646;2022-09-11T10:43:41;101193.19;;;19.11;100.00
8160;BME280;27404;52.398;9.646;2022-09-11T10:48:42;101197.72;;;19.62;100.00
8160;BME280;27404;52.398;9.646;2022-09-11T10:51:09;101201.81;;;19.90;100.00
8160;BME280;27404;52.398;9.646;2022-09-11T10:53:52;101207.84;;;20.03;100.00
8160;BME280;27404;52.398;9.646;2022-09-11T10:56:21;101205.50;;;20.25;98.21
8160;BME280;27404;52.398;9.646;2022-09-11T10:58:51;101199.38;;;20.29;96.83
8160;BME280;27404;52.398;9.646;2022-09-11T11:01:18;101208.16;;;20.46;97.76
8160;BME280;27404;52.398;9.646;2022-09-11T11:03:44;101204.41;;;20.61;94.04
8160;BME280;27404;52.398;9.646;2022-09-11T11:20:31;101201.13;;;20.94;88.35
8160;BME280;27404;52.398;9.646;2022-09-11T11:26:16;101211.72;;;21.16;86.25
8160;BME280;27404;52.398;9.646;2022-09-11T11:29:06;101219.44;;;21.24;87.01
8160;BME280;27404;52.398;9.646;2022-09-11T11:37:04;101213.16;;;21.13;88.20
8160;BME280;27404;52.398;9.646;2022-09-11T11:39:50;101213.44;;;21.12;87.25
8160;BME280;27404;52.398;9.646;2022-09-11T11:42:22;101211.94;;;21.49;86.13
8160;BME280;27404;52.398;9.646;2022-09-11T11:44:58;101218.84;;;21.52;82.20
8160;BME280;27404;52.398;9.646;2022-09-11T11:47:33;101217.97;;;21.56;83.06
8160;BME280;27404;52.398;9.646;2022-09-11T11:50:09;101218.97;;;21.41;79.26
8160;BME280;27404;52.398;9.646;2022-09-11T11:52:51;101218.97;;;21.41;79.43
8160;BME280;27404;52.398;9.646;2022-09-11T11:55:24;101219.91;;;21.32;77.36
8160;BME280;27404;52.398;9.646;2022-09-11T11:58:37;101216.03;;;21.33;78.78
8160;BME280;27404;52.398;9.646;2022-09-11T12:00:58;101216.84;;;21.04;76.52
8160;BME280;27404;52.398;9.646;2022-09-11T12:03:35;101215.53;;;20.61;78.41
8160;BME280;27404;52.398;9.646;2022-09-11T12:06:04;101215.94;;;20.84;80.39
8160;BME280;27404;52.398;9.646;2022-09-11T12:08:30;101216.91;;;20.98;79.00
8160;BME280;27404;52.398;9.646;2022-09-11T12:11:02;101210.84;;;20.91;79.81
8160;BME280;27404;52.398;9.646;2022-09-11T12:13:33;101220.69;;;20.38;82.74
8160;BME280;27404;52.398;9.646;2022-09-11T12:18:34;101210.66;;;19.97;86.63
8160;BME280;27404;52.398;9.646;2022-09-11T12:26:22;101210.72;;;19.77;88.25
8160;BME280;27404;52.398;9.646;2022-09-11T12:28:49;101209.06;;;19.76;87.95
8160;BME280;27404;52.398;9.646;2022-09-11T12:34:16;101209.00;;;19.96;85.68
8160;BME280;27404;52.398;9.646;2022-09-11T12:41:42;101214.00;;;19.89;90.84
8160;BME280;27404;52.398;9.646;2022-09-11T12:44:28;101204.97;;;19.58;92.77
8160;BME280;27404;52.398;9.646;2022-09-11T12:49:24;101210.63;;;18.90;93.22
8160;BME280;27404;52.398;9.646;2022-09-11T12:51:59;101198.72;;;18.69;96.22
8160;BME280;27404;52.398;9.646;2022-09-11T12:57:14;101205.34;;;19.25;100.00
8160;BME280;27404;52.398;9.646;2022-09-11T12:59:44;101202.44;;;19.72;98.77
8160;BME280;27404;52.398;9.646;2022-09-11T13:02:36;101201.66;;;20.16;94.97
8160;BME280;27404;52.398;9.646;2022-09-11T13:07:44;101199.31;;;20.79;88.79
8160;BME280;27404;52.398;9.646;2022-09-11T13:10:32;101198.94;;;21.15;86.37
8160;BME280;27404;52.398;9.646;2022-09-11T13:13:00;101198.81;;;21.01;84.38
8160;BME280;27404;52.398;9.646;2022-09-11T13:15:41;101189.84;;;21.09;84.33
8160;BME280;27404;52.398;9.646;2022-09-11T13:18:30;101190.75;;;20.99;80.47
8160;BME280;27404;52.398;9.646;2022-09-11T13:21:01;101189.06;;;21.04;84.45
8160;BME280;27404;52.398;9.646;2022-09-11T13:23:27;101179.59;;;21.05;85.02
8160;BME280;27404;52.398;9.646;2022-09-11T13:25:54;101183.63;;;20.88;83.96
8160;BME280;27404;52.398;9.646;2022-09-11T13:28:23;101191.91;;;20.59;83.28
8160;BME280;27404;52.398;9.646;2022-09-11T13:30:53;101186.03;;;20.31;88.11
8160;BME280;27404;52.398;9.646;2022-09-11T13:33:24;101188.31;;;20.23;88.44
8160;BME280;27404;52.398;9.646;2022-09-11T13:35:55;101184.50;;;20.09;87.84
8160;BME280;27404;52.398;9.646;2022-09-11T13:38:35;101188.34;;;20.58;88.38
8160;BME280;27404;52.398;9.646;2022-09-11T13:41:31;101179.56;;;20.75;83.83
8160;BME280;27404;52.398;9.646;2022-09-11T13:43:59;101179.28;;;20.82;83.77
8160;BME280;27404;52.398;9.646;2022-09-11T13:46:29;101174.53;;;20.82;83.86
8160;BME280;27404;52.398;9.646;2022-09-11T13:51:39;101181.03;;;20.67;86.49
8160;BME280;27404;52.398;9.646;2022-09-11T13:54:12;101173.47;;;20.78;85.37
8160;BME280;27404;52.398;9.646;2022-09-11T13:57:24;101163.47;;;20.77;87.82
8160;BME280;27404;52.398;9.646;2022-09-11T13:59:43;101161.75;;;21.11;89.53
8160;BME280;27404;52.398;9.646;2022-09-11T14:08:05;101159.16;;;21.68;83.32
8160;BME280;27404;52.398;9.646;2022-09-11T14:15:51;101166.22;;;21.07;82.67
8160;BME280;27404;52.398;9.646;2022-09-11T14:18:25;101162.84;;;20.85;84.72
8160;BME280;27404;52.398;9.646;2022-09-11T14:20:53;101160.78;;;20.62;84.31
8160;BME280;27404;52.398;9.646;2022-09-11T14:23:24;101164.81;;;20.10;84.90
8160;BME280;27404;52.398;9.646;2022-09-11T14:26:14;101159.78;;;19.57;87.23
8160;BME280;27404;52.398;9.646;2022-09-11T14:31:12;101158.19;;;19.35;90.06
8160;BME280;27404;52.398;9.646;2022-09-11T14:33:39;101161.03;;;19.15;91.37
8160;BME280;27404;52.398;9.646;2022-09-11T14:36:13;101162.16;;;19.08;92.46
8160;BME280;27404;52.398;9.646;2022-09-11T14:38:40;101156.31;;;19.10;92.32
8160;BME280;27404;52.398;9.646;2022-09-11T14:41:05;101140.25;;;19.12;91.69
8160;BME280;27404;52.398;9.646;2022-09-11T14:43:33;101143.53;;;19.30;92.54
8160;BME280;27404;52.398;9.646;2022-09-11T14:46:00;101146.50;;;19.44;96.88
8160;BME280;27404;52.398;9.646;2022-09-11T14:48:27;101146.72;;;19.58;96.32
8160;BME280;27404;52.398;9.646;2022-09-11T14:50:54;101138.09;;;19.70;96.84
8160;BME280;27404;52.398;9.646;2022-09-11T14:53:28;101146.63;;;19.78;95.63
8160;BME280;27404;52.398;9.646;2022-09-11T14:55:56;101146.38;;;19.80;94.80
8160;BME280;27404;52.398;9.646;2022-09-11T14:58:23;101144.72;;;19.79;94.58
8160;BME280;27404;52.398;9.646;2022-09-11T15:00:49;101143.25;;;19.92;94.23
8160;BME280;27404;52.398;9.646;2022-09-11T15:03:14;101146.81;;;19.97;92.21
8160;BME280;27404;52.398;9.646;2022-09-11T15:05:41;101137.41;;;19.88;93.56
8160;BME280;27404;52.398;9.646;2022-09-11T15:08:09;101146.59;;;19.94;92.28
8160;BME280;27404;52.398;9.646;2022-09-11T15:10:34;101139.31;;;20.03;92.92
8160;BME280;27404;52.398;9.646;2022-09-11T15:13:00;101134.88;;;20.02;90.11